createdAt,value
2023-04-17T00:00:07.034Z,13.80
2023-04-17T00:02:38.380Z,14.43
2023-04-17T00:05:08.897Z,13.93
2023-04-17T00:07:38.627Z,14.33
2023-04-17T00:10:09.566Z,13.60
2023-04-17T00:12:36.890Z,15.30
2023-04-17T00:15:05.638Z,14.90
2023-04-17T00:17:32.305Z,15.40
2023-04-17T00:19:59.009Z,14.80
2023-04-17T00:22:25.623Z,14.57
2023-04-17T00:24:52.219Z,16.47
2023-04-17T00:27:18.856Z,15.30
2023-04-17T00:29:45.501Z,15.23
2023-04-17T00:32:12.190Z,14.20
2023-04-17T00:34:40.376Z,14.83
2023-04-17T00:37:07.013Z,14.60
2023-04-17T00:39:33.641Z,15.80
2023-04-17T00:42:00.659Z,14.77
2023-04-17T00:44:27.508Z,15.40
2023-04-17T00:46:54.310Z,14.93
2023-04-17T00:49:21.817Z,14.67
2023-04-17T00:51:49.373Z,16.40
2023-04-17T00:54:16.604Z,15.10
2023-04-17T00:56:44.124Z,16.60
2023-04-17T00:59:13.924Z,17.00
2023-04-17T01:01:41.367Z,16.43
2023-04-17T01:04:10.022Z,16.43
2023-04-17T01:06:37.093Z,16.57
2023-04-17T01:09:04.098Z,17.50
2023-04-17T01:11:30.709Z,16.07
2023-04-17T01:13:57.369Z,16.90
2023-04-17T01:16:24.044Z,16.53
2023-04-17T01:18:51.166Z,16.90
2023-04-17T01:21:18.386Z,16.23
2023-04-17T01:23:52.071Z,16.90
2023-04-17T01:26:21.748Z,16.47
2023-04-17T01:28:56.492Z,16.23
2023-04-17T01:31:25.110Z,16.13
2023-04-17T01:33:52.789Z,16.87
2023-04-17T01:36:19.653Z,16.67
2023-04-17T01:38:46.259Z,16.67
2023-04-17T01:41:13.156Z,17.83
2023-04-17T01:43:45.225Z,16.23
2023-04-17T01:46:12.301Z,17.50
2023-04-17T01:48:39.329Z,17.23
2023-04-17T01:51:06.281Z,16.63
2023-04-17T01:53:34.097Z,17.53
2023-04-17T01:56:01.717Z,17.03
2023-04-17T01:58:29.830Z,17.07
2023-04-17T02:00:57.026Z,17.17
2023-04-17T02:03:26.640Z,17.13
2023-04-17T02:05:53.719Z,17.97
2023-04-17T02:08:20.491Z,16.97
2023-04-17T02:10:47.121Z,18.07
2023-04-17T02:13:13.778Z,17.40
2023-04-17T02:15:42.031Z,17.80
2023-04-17T02:18:09.256Z,19.17
2023-04-17T02:20:37.346Z,18.10
2023-04-17T02:23:06.376Z,19.00
2023-04-17T02:25:33.652Z,18.80
2023-04-17T02:28:00.637Z,18.37
2023-04-17T02:30:28.369Z,20.77
2023-04-17T02:32:57.231Z,18.47
2023-04-17T02:35:26.398Z,20.00
2023-04-17T02:37:53.284Z,17.97
2023-04-17T02:40:22.579Z,18.73
2023-04-17T02:42:52.992Z,19.40
2023-04-17T02:45:19.616Z,18.80
2023-04-17T02:47:46.340Z,18.70
2023-04-17T02:50:13.349Z,19.60
2023-04-17T02:52:51.691Z,19.57
2023-04-17T02:55:18.457Z,19.37
2023-04-17T02:57:45.112Z,19.07
2023-04-17T03:00:15.115Z,19.43
2023-04-17T03:02:42.373Z,20.87
2023-04-17T03:05:11.435Z,19.97
2023-04-17T03:07:38.115Z,20.30
2023-04-17T03:10:06.233Z,20.10
2023-04-17T03:12:32.928Z,20.13
2023-04-17T03:15:00.741Z,20.50
2023-04-17T03:17:27.419Z,20.87
2023-04-17T03:19:54.216Z,20.67
2023-04-17T03:22:20.893Z,21.27
2023-04-17T03:24:48.412Z,19.60
2023-04-17T03:27:15.329Z,22.27
2023-04-17T03:29:42.318Z,20.50
2023-04-17T03:32:09.883Z,21.13
2023-04-17T03:34:36.967Z,21.83
2023-04-17T03:37:03.703Z,21.67
2023-04-17T03:39:31.322Z,20.87
2023-04-17T03:41:58.014Z,21.53
2023-04-17T03:44:24.686Z,21.73
2023-04-17T03:46:51.272Z,20.80
2023-04-17T03:49:18.619Z,22.50
2023-04-17T03:51:46.044Z,21.47
2023-04-17T03:54:17.846Z,22.37
2023-04-17T03:56:47.569Z,22.17
2023-04-17T03:59:14.461Z,23.20
2023-04-17T04:01:44.260Z,22.67
2023-04-17T04:04:23.629Z,22.93
2023-04-17T04:06:57.473Z,22.67
2023-04-17T04:09:26.071Z,22.87
2023-04-17T04:11:53.382Z,23.80
2023-04-17T04:14:20.068Z,24.23
2023-04-17T04:16:48.843Z,22.60
2023-04-17T04:19:15.672Z,24.50
2023-04-17T04:21:45.037Z,23.63
2023-04-17T04:24:14.246Z,24.47
2023-04-17T04:26:42.421Z,24.40
2023-04-17T04:29:11.751Z,24.13
2023-04-17T04:31:50.839Z,25.33
2023-04-17T04:34:21.471Z,25.40
2023-04-17T04:36:50.903Z,24.63
2023-04-17T04:39:29.851Z,24.07
2023-04-17T04:42:05.842Z,24.37
2023-04-17T04:44:42.608Z,24.87
2023-04-17T04:47:09.702Z,24.80
2023-04-17T04:49:36.526Z,26.33
2023-04-17T04:52:03.173Z,24.43
2023-04-17T04:54:33.074Z,25.63
2023-04-17T04:57:01.326Z,25.70
2023-04-17T04:59:28.396Z,25.77
2023-04-17T05:02:11.275Z,26.47
2023-04-17T05:04:38.376Z,25.57
2023-04-17T05:07:07.205Z,26.07
2023-04-17T05:09:35.590Z,25.83
2023-04-17T05:12:03.256Z,26.17
2023-04-17T05:14:29.924Z,27.10
2023-04-17T05:16:57.324Z,26.57
2023-04-17T05:19:24.513Z,26.53
2023-04-17T05:21:56.137Z,27.37
2023-04-17T05:24:23.720Z,26.33
2023-04-17T05:26:50.690Z,26.17
2023-04-17T05:29:17.923Z,24.93
2023-04-17T05:31:44.673Z,26.23
2023-04-17T05:34:24.904Z,29.43
2023-04-17T05:36:51.512Z,28.57
2023-04-17T05:39:19.062Z,26.67
2023-04-17T05:41:45.838Z,26.13
2023-04-17T05:44:12.610Z,27.10
2023-04-17T05:46:39.207Z,27.60
2023-04-17T05:49:06.849Z,28.90
2023-04-17T05:51:33.440Z,27.63
2023-04-17T05:54:00.227Z,27.80
2023-04-17T05:56:27.117Z,29.63
2023-04-17T05:58:53.894Z,29.67
2023-04-17T06:01:22.655Z,28.00
2023-04-17T06:03:52.965Z,27.67
2023-04-17T06:06:23.712Z,27.73
2023-04-17T06:08:54.286Z,28.77
2023-04-17T06:11:22.951Z,28.87
2023-04-17T06:13:49.718Z,28.03
2023-04-17T06:16:17.851Z,28.73
2023-04-17T06:18:47.324Z,26.63
2023-04-17T06:21:14.059Z,28.47
2023-04-17T06:23:40.769Z,27.20
2023-04-17T06:26:07.942Z,30.50
2023-04-17T06:28:34.734Z,27.80
2023-04-17T06:31:01.456Z,30.73
2023-04-17T06:33:28.098Z,28.10
2023-04-17T06:35:56.110Z,27.57
2023-04-17T06:38:30.347Z,27.93
2023-04-17T06:40:57.333Z,28.30
2023-04-17T06:43:24.013Z,27.23
2023-04-17T06:45:53.182Z,28.03
2023-04-17T06:48:19.894Z,27.17
2023-04-17T06:50:46.534Z,25.67
2023-04-17T06:53:13.234Z,24.63
2023-04-17T06:55:40.103Z,26.73
2023-04-17T06:58:09.756Z,24.23
2023-04-17T07:00:36.474Z,25.27
2023-04-17T07:03:03.258Z,22.53
2023-04-17T07:05:30.072Z,23.27
2023-04-17T07:07:56.806Z,23.43
2023-04-17T07:10:23.601Z,24.30
2023-04-17T07:12:50.476Z,22.37
2023-04-17T07:15:17.239Z,22.10
2023-04-17T07:17:43.943Z,10.40
2023-04-17T07:20:11.074Z,20.93
2023-04-17T07:22:37.771Z,21.60
2023-04-17T07:25:05.485Z,21.27
2023-04-17T07:27:32.107Z,22.23
2023-04-17T07:29:58.796Z,21.00
2023-04-17T07:32:25.506Z,22.13
2023-04-17T07:34:52.790Z,21.10
2023-04-17T07:37:19.585Z,20.60
2023-04-17T07:39:49.652Z,16.60
2023-04-17T07:42:16.528Z,20.43
2023-04-17T07:44:43.158Z,18.93
2023-04-17T07:47:09.840Z,19.43
2023-04-17T07:49:36.495Z,18.30
2023-04-17T07:52:03.106Z,5.50
2023-04-17T07:54:31.218Z,19.33
2023-04-17T07:57:02.737Z,18.50
2023-04-17T07:59:30.576Z,14.63
2023-04-17T08:01:57.523Z,18.97
2023-04-17T08:04:25.574Z,19.50
2023-04-17T08:06:52.568Z,12.23
2023-04-17T08:09:21.237Z,18.33
2023-04-17T08:11:56.840Z,18.67
2023-04-17T08:14:24.850Z,17.30
2023-04-17T08:16:51.657Z,16.30
2023-04-17T08:19:18.627Z,16.60
2023-04-17T08:21:47.618Z,14.17
2023-04-17T08:24:14.364Z,14.50
2023-04-17T08:26:41.547Z,15.83
2023-04-17T08:29:08.181Z,15.63
2023-04-17T08:31:39.855Z,15.13
2023-04-17T08:34:14.374Z,15.27
2023-04-17T08:36:42.640Z,12.67
2023-04-17T08:39:12.120Z,4.53
2023-04-17T08:41:57.494Z,5.50
2023-04-17T08:44:24.133Z,14.33
2023-04-17T08:46:51.584Z,13.87
2023-04-17T08:49:18.589Z,12.30
2023-04-17T08:51:45.288Z,14.20
2023-04-17T08:54:11.984Z,4.50
2023-04-17T08:56:38.758Z,4.50
2023-04-17T08:59:05.702Z,4.00
2023-04-17T09:01:34.709Z,6.10
2023-04-17T09:04:01.552Z,5.03
2023-04-17T09:06:29.606Z,4.80
2023-04-17T09:09:01.718Z,9.17
2023-04-17T09:11:28.686Z,5.60
2023-04-17T09:13:55.657Z,4.90
2023-04-17T09:16:25.585Z,9.30
2023-04-17T09:19:05.949Z,4.50
2023-04-17T09:21:32.619Z,10.33
2023-04-17T09:23:59.635Z,10.77
2023-04-17T09:26:27.326Z,8.07
2023-04-17T09:29:01.709Z,6.60
2023-04-17T09:31:34.697Z,4.80
2023-04-17T09:34:07.628Z,3.93
2023-04-17T09:36:37.204Z,4.07
2023-04-17T09:39:06.203Z,9.97
2023-04-17T09:41:38.985Z,3.80
2023-04-17T09:44:06.199Z,5.50
2023-04-17T09:46:35.315Z,4.43
2023-04-17T09:49:10.912Z,9.50
2023-04-17T09:51:38.672Z,9.40
2023-04-17T09:54:06.964Z,5.13
2023-04-17T09:56:35.473Z,9.50
2023-04-17T09:59:04.958Z,9.93
2023-04-17T10:01:32.565Z,9.33
2023-04-17T10:03:59.952Z,9.83
2023-04-17T10:06:27.222Z,9.77
2023-04-17T10:08:54.909Z,8.60
2023-04-17T10:11:24.567Z,3.37
2023-04-17T10:14:11.019Z,7.20
2023-04-17T10:16:39.579Z,5.37
2023-04-17T10:19:32.248Z,11.20
2023-04-17T10:22:20.170Z,9.57
2023-04-17T10:24:48.980Z,8.40
2023-04-17T10:27:27.572Z,9.47
2023-04-17T10:30:02.203Z,11.10
2023-04-17T10:32:29.960Z,5.80
2023-04-17T10:34:57.336Z,3.93
2023-04-17T10:37:53.388Z,4.13
2023-04-17T10:40:29.919Z,11.27
2023-04-17T10:43:17.986Z,3.90
2023-04-17T10:46:12.163Z,11.70
2023-04-17T10:48:52.025Z,10.80
2023-04-17T10:51:21.833Z,11.87
2023-04-17T10:53:56.150Z,12.20
2023-04-17T10:56:38.332Z,8.37
2023-04-17T10:59:09.892Z,12.17
2023-04-17T11:01:48.850Z,9.03
2023-04-17T11:04:26.547Z,4.30
2023-04-17T11:06:54.162Z,6.60
2023-04-17T11:09:21.961Z,4.10
2023-04-17T11:11:48.832Z,8.23
2023-04-17T11:14:20.879Z,8.63
2023-04-17T11:16:50.152Z,3.60
2023-04-17T11:19:24.702Z,7.20
2023-04-17T11:21:53.535Z,7.80
2023-04-17T11:24:24.256Z,7.40
2023-04-17T11:26:51.069Z,4.30
2023-04-17T11:29:19.959Z,6.73
2023-04-17T11:31:47.658Z,3.77
2023-04-17T11:34:15.901Z,4.20
2023-04-17T11:36:57.200Z,6.70
2023-04-17T11:39:25.889Z,6.20
2023-04-17T11:41:53.438Z,6.07
2023-04-17T11:44:20.906Z,5.13
2023-04-17T11:46:51.651Z,5.90
2023-04-17T11:49:46.742Z,5.10
2023-04-17T11:52:14.031Z,6.40
2023-04-17T11:54:41.879Z,4.53
2023-04-17T11:57:13.144Z,6.50
2023-04-17T11:59:45.468Z,4.57
2023-04-17T12:02:12.431Z,6.60
2023-04-17T12:04:39.929Z,3.70
2023-04-17T12:07:08.451Z,3.83
2023-04-17T12:09:35.787Z,3.93
2023-04-17T12:12:06.364Z,3.87
2023-04-17T12:14:33.017Z,3.70
2023-04-17T12:16:59.768Z,7.13
2023-04-17T12:19:31.585Z,3.77
2023-04-17T12:21:59.229Z,4.03
2023-04-17T12:24:26.093Z,3.53
2023-04-17T12:26:52.922Z,3.30
2023-04-17T12:29:26.523Z,3.73
2023-04-17T12:31:59.471Z,4.37
2023-04-17T12:34:27.698Z,6.67
2023-04-17T12:36:54.602Z,5.33
2023-04-17T12:39:21.419Z,3.70
2023-04-17T12:41:48.142Z,3.77
2023-04-17T12:44:15.025Z,6.67
2023-04-17T12:46:42.018Z,5.10
2023-04-17T12:49:08.926Z,6.87
2023-04-17T12:51:37.803Z,3.57
2023-04-17T12:54:04.884Z,3.70
2023-04-17T12:56:31.971Z,4.47
2023-04-17T12:59:00.016Z,7.37
2023-04-17T13:01:28.825Z,4.40
2023-04-17T13:03:55.634Z,3.80
2023-04-17T13:06:22.430Z,3.57
2023-04-17T13:08:49.050Z,4.10
2023-04-17T13:11:16.207Z,4.17
2023-04-17T13:13:42.798Z,6.00
2023-04-17T13:16:10.266Z,3.83
2023-04-17T13:18:37.451Z,3.90
2023-04-17T13:21:04.086Z,3.70
2023-04-17T13:23:31.183Z,4.87
2023-04-17T13:25:58.119Z,4.00
2023-04-17T13:28:24.763Z,3.50
2023-04-17T13:30:52.622Z,5.83
2023-04-17T13:33:19.244Z,5.53
2023-04-17T13:35:45.972Z,5.47
2023-04-17T13:38:12.542Z,5.77
2023-04-17T13:40:40.749Z,3.70
2023-04-17T13:43:07.490Z,3.57
2023-04-17T13:45:34.141Z,4.50
2023-04-17T13:48:01.271Z,3.67
2023-04-17T13:50:27.929Z,3.60
2023-04-17T13:52:54.525Z,3.53
2023-04-17T13:55:21.115Z,3.70
2023-04-17T13:57:47.762Z,4.03
2023-04-17T14:00:14.934Z,3.73
2023-04-17T14:02:42.643Z,5.20
2023-04-17T14:05:09.907Z,5.70
2023-04-17T14:07:37.771Z,5.80
2023-04-17T14:10:04.750Z,3.67
2023-04-17T14:12:31.407Z,5.00
2023-04-17T14:14:58.305Z,3.30
2023-04-17T14:17:25.378Z,3.80
2023-04-17T14:19:52.858Z,4.60
2023-04-17T14:22:20.025Z,5.90
2023-04-17T14:24:46.724Z,5.03
2023-04-17T14:27:13.341Z,4.63
2023-04-17T14:29:40.062Z,6.17
2023-04-17T14:32:06.691Z,5.23
2023-04-17T14:34:33.322Z,4.10
2023-04-17T14:37:00.157Z,3.50
2023-04-17T14:39:27.954Z,5.83
2023-04-17T14:41:56.958Z,5.47
2023-04-17T14:44:24.578Z,3.53
2023-04-17T14:46:51.274Z,3.50
2023-04-17T14:49:18.042Z,5.30
2023-04-17T14:51:44.702Z,6.30
2023-04-17T14:54:11.510Z,3.43
2023-04-17T14:56:38.987Z,6.30
2023-04-17T14:59:05.613Z,6.37
2023-04-17T15:01:32.372Z,4.60
2023-04-17T15:03:59.368Z,5.27
2023-04-17T15:06:26.140Z,6.90
2023-04-17T15:08:52.820Z,4.10
2023-04-17T15:11:19.681Z,5.40
2023-04-17T15:13:46.387Z,3.50
2023-04-17T15:16:13.019Z,6.43
2023-04-17T15:18:39.728Z,6.57
2023-04-17T15:21:06.814Z,5.07
2023-04-17T15:23:34.611Z,7.30
2023-04-17T15:26:01.518Z,3.80
2023-04-17T15:28:28.252Z,3.67
2023-04-17T15:30:55.780Z,7.00
2023-04-17T15:33:22.509Z,3.10
2023-04-17T15:35:58.409Z,3.40
2023-04-17T15:38:26.153Z,3.60
2023-04-17T15:40:53.435Z,5.43
2023-04-17T15:43:20.799Z,5.70
2023-04-17T15:45:51.305Z,5.93
2023-04-17T15:48:18.086Z,7.80
2023-04-17T15:50:44.746Z,3.90
2023-04-17T15:53:13.188Z,6.03
2023-04-17T15:55:41.052Z,3.27
2023-04-17T15:58:07.708Z,4.63
2023-04-17T16:00:34.417Z,5.70
2023-04-17T16:03:01.195Z,6.03
2023-04-17T16:05:29.586Z,3.67
2023-04-17T16:07:56.188Z,3.70
2023-04-17T16:10:22.962Z,6.23
2023-04-17T16:12:49.595Z,3.20
2023-04-17T16:15:17.520Z,5.97
2023-04-17T16:17:45.494Z,4.10
2023-04-17T16:20:12.974Z,3.77
2023-04-17T16:22:39.594Z,5.73
2023-04-17T16:25:06.651Z,4.53
2023-04-17T16:27:33.942Z,6.60
2023-04-17T16:30:00.529Z,3.60
2023-04-17T16:32:27.686Z,6.77
2023-04-17T16:34:54.363Z,5.37
2023-04-17T16:37:21.036Z,6.57
2023-04-17T16:39:47.704Z,7.20
2023-04-17T16:42:14.616Z,5.93
2023-04-17T16:44:41.279Z,6.23
2023-04-17T16:47:13.522Z,3.20
2023-04-17T16:49:41.431Z,5.73
2023-04-17T16:52:08.113Z,6.47
2023-04-17T16:54:34.756Z,5.27
2023-04-17T16:57:01.426Z,6.00
2023-04-17T16:59:28.028Z,6.03
2023-04-17T17:01:54.703Z,6.17
2023-04-17T17:04:21.414Z,4.43
2023-04-17T17:06:48.077Z,5.63
2023-04-17T17:09:14.842Z,6.77
2023-04-17T17:11:41.616Z,6.83
2023-04-17T17:14:08.273Z,4.37
2023-04-17T17:16:37.358Z,3.20
2023-04-17T17:19:04.114Z,3.47
2023-04-17T17:21:31.116Z,6.97
2023-04-17T17:23:57.962Z,6.33
2023-04-17T17:26:25.158Z,7.80
2023-04-17T17:28:53.223Z,6.87
2023-04-17T17:31:20.433Z,5.67
2023-04-17T17:33:52.878Z,4.63
2023-04-17T17:36:21.422Z,3.40
2023-04-17T17:38:55.175Z,8.17
2023-04-17T17:41:23.046Z,7.27
2023-04-17T17:43:49.696Z,8.30
2023-04-17T17:46:16.518Z,7.70
2023-04-17T17:48:43.172Z,8.07
2023-04-17T17:51:09.797Z,8.57
2023-04-17T17:53:36.407Z,6.83
2023-04-17T17:56:03.350Z,5.80
2023-04-17T17:58:30.000Z,5.60
2023-04-17T18:00:56.670Z,7.90
2023-04-17T18:03:23.548Z,8.63
2023-04-17T18:05:50.376Z,7.53
2023-04-17T18:08:17.429Z,7.23
2023-04-17T18:10:44.167Z,7.90
2023-04-17T18:13:10.907Z,5.93
2023-04-17T18:15:37.530Z,8.13
2023-04-17T18:18:04.278Z,7.33
2023-04-17T18:20:30.904Z,8.17
2023-04-17T18:22:57.692Z,7.50
2023-04-17T18:25:24.444Z,7.10
2023-04-17T18:27:51.089Z,6.47
2023-04-17T18:30:17.786Z,7.10
2023-04-17T18:32:44.429Z,7.13
2023-04-17T18:35:11.496Z,7.27
2023-04-17T18:37:39.513Z,5.63
2023-04-17T18:40:10.282Z,6.13
2023-04-17T18:42:36.949Z,4.77
2023-04-17T18:45:04.325Z,3.67
2023-04-17T18:47:31.082Z,5.83
2023-04-17T18:49:57.706Z,5.83
2023-04-17T18:52:24.357Z,5.87
2023-04-17T18:54:51.001Z,4.43
2023-04-17T18:57:17.631Z,3.57
2023-04-17T18:59:44.231Z,6.03
2023-04-17T19:02:10.949Z,6.10
2023-04-17T19:04:37.556Z,4.50
2023-04-17T19:07:04.257Z,6.77
2023-04-17T19:09:30.871Z,6.07
2023-04-17T19:11:58.409Z,6.00
2023-04-17T19:14:25.209Z,5.60
2023-04-17T19:16:52.030Z,6.90
2023-04-17T19:19:18.802Z,4.60
2023-04-17T19:21:45.438Z,7.57
2023-04-17T19:24:12.168Z,7.50
2023-04-17T19:26:38.795Z,7.73
2023-04-17T19:29:05.547Z,7.60
2023-04-17T19:31:33.124Z,4.40
2023-04-17T19:34:00.357Z,7.80
2023-04-17T19:36:28.026Z,8.03
2023-04-17T19:38:55.752Z,7.90
2023-04-17T19:41:22.402Z,10.20
2023-04-17T19:43:50.971Z,7.73
2023-04-17T19:46:18.990Z,7.53
2023-04-17T19:48:46.627Z,7.70
2023-04-17T19:51:14.445Z,7.80
2023-04-17T19:53:42.282Z,8.10
2023-04-17T19:56:09.735Z,7.90
2023-04-17T19:58:37.184Z,8.70
2023-04-17T20:01:04.149Z,11.40
2023-04-17T20:03:32.344Z,5.70
2023-04-17T20:05:59.573Z,8.40
2023-04-17T20:08:26.357Z,5.83
2023-04-17T20:10:53.040Z,9.00
2023-04-17T20:13:19.714Z,9.33
2023-04-17T20:15:46.393Z,8.70
2023-04-17T20:18:13.247Z,8.90
2023-04-17T20:20:40.014Z,9.47
2023-04-17T20:23:06.775Z,9.80
2023-04-17T20:25:33.381Z,9.23
2023-04-17T20:28:02.733Z,9.23
2023-04-17T20:30:29.770Z,9.30
2023-04-17T20:32:56.657Z,11.63
2023-04-17T20:35:26.162Z,9.93
2023-04-17T20:37:53.020Z,9.20
2023-04-17T20:40:20.129Z,9.80
2023-04-17T20:42:47.342Z,9.07
2023-04-17T20:45:14.067Z,9.90
2023-04-17T20:47:55.994Z,10.27
2023-04-17T20:50:24.002Z,10.33
2023-04-17T20:52:50.874Z,10.77
2023-04-17T20:55:19.592Z,10.87
2023-04-17T20:57:46.749Z,10.00
2023-04-17T21:00:13.662Z,10.63
2023-04-17T21:02:40.523Z,10.33
2023-04-17T21:05:07.869Z,10.67
2023-04-17T21:07:34.969Z,10.20
2023-04-17T21:10:01.894Z,10.10
2023-04-17T21:12:28.687Z,10.17
2023-04-17T21:14:55.317Z,9.73
2023-04-17T21:17:23.041Z,10.73
2023-04-17T21:19:50.002Z,10.03
2023-04-17T21:22:16.620Z,10.47
2023-04-17T21:24:43.322Z,9.93
2023-04-17T21:27:10.338Z,9.80
2023-04-17T21:29:37.449Z,10.13
2023-04-17T21:32:04.270Z,8.47
2023-04-17T21:34:30.933Z,10.70
2023-04-17T21:36:59.690Z,9.33
2023-04-17T21:39:26.510Z,10.07
2023-04-17T21:41:53.094Z,9.97
2023-04-17T21:44:19.782Z,10.27
2023-04-17T21:46:46.513Z,10.57
2023-04-17T21:49:13.277Z,10.43
2023-04-17T21:51:40.776Z,10.20
2023-04-17T21:54:08.624Z,9.97
2023-04-17T21:56:36.016Z,9.83
2023-04-17T21:59:03.074Z,9.80
2023-04-17T22:01:29.880Z,10.80
2023-04-17T22:03:56.600Z,9.77
2023-04-17T22:06:23.246Z,10.63
2023-04-17T22:08:50.094Z,9.70
2023-04-17T22:11:16.760Z,10.17
2023-04-17T22:13:44.877Z,11.00
2023-04-17T22:16:11.744Z,10.70
2023-04-17T22:18:38.385Z,10.23
2023-04-17T22:21:05.825Z,10.93
2023-04-17T22:23:32.467Z,10.50
2023-04-17T22:25:59.106Z,9.73
2023-04-17T22:28:29.230Z,10.17
2023-04-17T22:30:55.987Z,10.10
2023-04-17T22:33:26.106Z,9.80
2023-04-17T22:35:53.064Z,9.50
2023-04-17T22:38:20.998Z,9.97
2023-04-17T22:40:48.187Z,9.70
2023-04-17T22:43:15.299Z,8.97
2023-04-17T22:45:42.338Z,10.10
2023-04-17T22:48:09.035Z,9.50
2023-04-17T22:50:37.577Z,10.20
2023-04-17T22:53:04.194Z,9.37
2023-04-17T22:55:30.914Z,8.07
2023-04-17T22:57:57.598Z,11.07
2023-04-17T23:00:25.245Z,11.00
2023-04-17T23:02:52.186Z,11.10
2023-04-17T23:05:19.011Z,10.77
2023-04-17T23:07:45.667Z,11.67
2023-04-17T23:10:12.276Z,11.37
2023-04-17T23:12:38.876Z,11.40
2023-04-17T23:15:08.143Z,11.43
2023-04-17T23:17:34.855Z,11.80
2023-04-17T23:20:01.545Z,12.27
2023-04-17T23:22:28.266Z,12.50
2023-04-17T23:24:54.915Z,12.67
2023-04-17T23:27:21.519Z,13.07
2023-04-17T23:29:48.119Z,12.43
2023-04-17T23:32:15.365Z,13.83
2023-04-17T23:34:42.514Z,13.20
2023-04-17T23:37:09.639Z,13.70
2023-04-17T23:39:36.252Z,13.13
2023-04-17T23:42:07.165Z,12.93
2023-04-17T23:44:34.551Z,14.53
2023-04-17T23:47:01.984Z,14.47
2023-04-17T23:49:28.773Z,14.53
2023-04-17T23:51:55.532Z,14.37
2023-04-17T23:54:22.245Z,14.80
2023-04-17T23:56:48.897Z,14.63
2023-04-17T23:59:15.544Z,15.50
